sensor_id;sensor_type;location;lat;lon;timestamp;pressure;altitude;pressure_sealevel;temperature;humidity
71504;BME280;59323;50.874;7.028;2023-05-10T00:00:09;100460.88;;;13.40;100.00
71504;BME280;59323;50.874;7.028;2023-05-10T00:02:35;100472.19;;;13.46;100.00
71504;BME280;59323;50.874;7.028;2023-05-10T00:05:01;100469.06;;;13.47;100.00
71504;BME280;59323;50.874;7.028;2023-05-10T00:07:27;100457.75;;;13.38;100.00
71504;BME280;59323;50.874;7.028;2023-05-10T00:09:52;100463.22;;;13.42;100.00
71504;BME280;59323;50.874;7.028;2023-05-10T00:12:18;100469.06;;;13.44;100.00
71504;BME280;59323;50.874;7.028;2023-05-10T00:14:46;100462.81;;;13.40;100.00
71504;BME280;59323;50.874;7.028;2023-05-10T00:17:11;100460.88;;;13.40;100.00
71504;BME280;59323;50.874;7.028;2023-05-10T00:19:39;100460.50;;;13.42;100.00
71504;BME280;59323;50.874;7.028;2023-05-10T00:22:04;100460.88;;;13.44;100.00
71504;BME280;59323;50.874;7.028;2023-05-10T00:24:32;100462.81;;;13.43;100.00
71504;BME280;59323;50.874;7.028;2023-05-10T00:26:57;100472.97;;;13.50;100.00
71504;BME280;59323;50.874;7.028;2023-05-10T00:29:23;100464.38;;;13.44;100.00
71504;BME280;59323;50.874;7.028;2023-05-10T00:31:49;100471.00;;;13.47;100.00
71504;BME280;59323;50.874;7.028;2023-05-10T00:34:14;100470.63;;;13.45;100.00
71504;BME280;59323;50.874;7.028;2023-05-10T00:36:40;100458.53;;;13.39;100.00
71504;BME280;59323;50.874;7.028;2023-05-10T00:39:06;100469.06;;;13.47;100.00
71504;BME280;59323;50.874;7.028;2023-05-10T00:41:31;100459.31;;;13.43;100.00
71504;BME280;59323;50.874;7.028;2023-05-10T00:43:58;100460.50;;;13.42;100.00
71504;BME280;59323;50.874;7.028;2023-05-10T00:46:24;100460.88;;;13.44;100.00
71504;BME280;59323;50.874;7.028;2023-05-10T00:48:50;100464.78;;;13.43;100.00
71504;BME280;59323;50.874;7.028;2023-05-10T00:51:15;100463.59;;;13.44;100.00
71504;BME280;59323;50.874;7.028;2023-05-10T00:53:41;100457.75;;;13.42;100.00
71504;BME280;59323;50.874;7.028;2023-05-10T00:56:07;100452.69;;;13.37;100.00
71504;BME280;59323;50.874;7.028;2023-05-10T00:58:35;100458.16;;;13.40;100.00
71504;BME280;59323;50.874;7.028;2023-05-10T01:01:01;100460.88;;;13.40;100.00
71504;BME280;59323;50.874;7.028;2023-05-10T01:03:27;100463.22;;;13.42;100.00
71504;BME280;59323;50.874;7.028;2023-05-10T01:05:53;100468.28;;;13.40;100.00
71504;BME280;59323;50.874;7.028;2023-05-10T01:08:27;100468.69;;;13.38;100.00
71504;BME280;59323;50.874;7.028;2023-05-10T01:10:53;100462.03;;;13.39;100.00
71504;BME280;59323;50.874;7.028;2023-05-10T01:13:33;100467.50;;;13.39;100.00
71504;BME280;59323;50.874;7.028;2023-05-10T01:15:59;100473.75;;;13.40;100.00
71504;BME280;59323;50.874;7.028;2023-05-10T01:18:27;100476.09;;;13.38;100.00
71504;BME280;59323;50.874;7.028;2023-05-10T01:21:14;100468.69;;;13.35;100.00
71504;BME280;59323;50.874;7.028;2023-05-10T01:29:24;100478.03;;;13.37;100.00
71504;BME280;59323;50.874;7.028;2023-05-10T01:32:20;100481.94;;;13.36;100.00
71504;BME280;59323;50.874;7.028;2023-05-10T01:35:06;100470.63;;;13.34;100.00
71504;BME280;59323;50.874;7.028;2023-05-10T01:38:18;100473.75;;;13.29;100.00
71504;BME280;59323;50.874;7.028;2023-05-10T01:43:53;100462.81;;;13.25;100.00
71504;BME280;59323;50.874;7.028;2023-05-10T01:46:33;100474.13;;;13.27;100.00
71504;BME280;59323;50.874;7.028;2023-05-10T01:49:00;100463.22;;;13.24;100.00
71504;BME280;59323;50.874;7.028;2023-05-10T01:51:31;100472.19;;;13.28;100.00
71504;BME280;59323;50.874;7.028;2023-05-10T01:54:02;100468.69;;;13.27;100.00
71504;BME280;59323;50.874;7.028;2023-05-10T01:56:30;100466.72;;;13.28;100.00
71504;BME280;59323;50.874;7.028;2023-05-10T01:58:58;100474.13;;;13.27;100.00
71504;BME280;59323;50.874;7.028;2023-05-10T02:01:26;100475.31;;;13.30;100.00
71504;BME280;59323;50.874;7.028;2023-05-10T02:03:53;100472.97;;;13.28;100.00
71504;BME280;59323;50.874;7.028;2023-05-10T02:06:21;100473.75;;;13.25;100.00
71504;BME280;59323;50.874;7.028;2023-05-10T02:08:49;100478.41;;;13.28;100.00
71504;BME280;59323;50.874;7.028;2023-05-10T02:11:17;100488.56;;;13.31;100.00
71504;BME280;59323;50.874;7.028;2023-05-10T02:13:44;100487.38;;;13.32;100.00
71504;BME280;59323;50.874;7.028;2023-05-10T02:16:11;100478.81;;;13.30;100.00
71504;BME280;59323;50.874;7.028;2023-05-10T02:18:39;100480.75;;;13.33;100.00
71504;BME280;59323;50.874;7.028;2023-05-10T02:21:06;100483.09;;;13.31;100.00
71504;BME280;59323;50.874;7.028;2023-05-10T02:23:34;100482.31;;;13.35;100.00
71504;BME280;59323;50.874;7.028;2023-05-10T02:26:01;100479.97;;;13.29;100.00
71504;BME280;59323;50.874;7.028;2023-05-10T02:28:27;100484.66;;;13.32;100.00
71504;BME280;59323;50.874;7.028;2023-05-10T02:30:54;100492.47;;;13.34;100.00
71504;BME280;59323;50.874;7.028;2023-05-10T02:33:21;100487.38;;;13.29;100.00
71504;BME280;59323;50.874;7.028;2023-05-10T02:35:47;100486.59;;;13.36;100.00
71504;BME280;59323;50.874;7.028;2023-05-10T02:38:14;100493.63;;;13.37;100.00
71504;BME280;59323;50.874;7.028;2023-05-10T02:40:41;100494.41;;;13.33;100.00
71504;BME280;59323;50.874;7.028;2023-05-10T02:43:09;100484.66;;;13.29;100.00
71504;BME280;59323;50.874;7.028;2023-05-10T02:45:37;100489.34;;;13.28;100.00
71504;BME280;59323;50.874;7.028;2023-05-10T02:48:04;100495.19;;;13.30;100.00
71504;BME280;59323;50.874;7.028;2023-05-10T02:50:31;100500.25;;;13.28;100.00
71504;BME280;59323;50.874;7.028;2023-05-10T02:53:02;100507.28;;;13.33;100.00
71504;BME280;59323;50.874;7.028;2023-05-10T02:55:32;100499.47;;;13.28;100.00
71504;BME280;59323;50.874;7.028;2023-05-10T02:58:01;100504.16;;;13.31;100.00
71504;BME280;59323;50.874;7.028;2023-05-10T03:00:27;100493.63;;;13.26;100.00
71504;BME280;59323;50.874;7.028;2023-05-10T03:02:53;100499.47;;;13.31;100.00
71504;BME280;59323;50.874;7.028;2023-05-10T03:05:19;100497.13;;;13.33;100.00
71504;BME280;59323;50.874;7.028;2023-05-10T03:07:45;100497.91;;;13.27;100.00
71504;BME280;59323;50.874;7.028;2023-05-10T03:10:11;100488.53;;;13.21;100.00
71504;BME280;59323;50.874;7.028;2023-05-10T03:18:12;100501.81;;;13.26;100.00
71504;BME280;59323;50.874;7.028;2023-05-10T03:20:47;100499.47;;;13.21;100.00
71504;BME280;59323;50.874;7.028;2023-05-10T03:23:27;100511.16;;;13.21;100.00
71504;BME280;59323;50.874;7.028;2023-05-10T03:25:55;100509.97;;;13.19;100.00
71504;BME280;59323;50.874;7.028;2023-05-10T03:28:21;100514.63;;;13.15;100.00
71504;BME280;59323;50.874;7.028;2023-05-10T03:30:47;100513.06;;;13.14;100.00
71504;BME280;59323;50.874;7.028;2023-05-10T03:33:13;100515.00;;;13.13;100.00
71504;BME280;59323;50.874;7.028;2023-05-10T03:35:39;100524.41;;;13.19;100.00
71504;BME280;59323;50.874;7.028;2023-05-10T03:38:04;100527.13;;;13.19;100.00
71504;BME280;59323;50.874;7.028;2023-05-10T03:40:30;100522.47;;;13.20;100.00
71504;BME280;59323;50.874;7.028;2023-05-10T03:42:57;100528.31;;;13.22;100.00
71504;BME280;59323;50.874;7.028;2023-05-10T03:45:23;100522.03;;;13.14;100.00
71504;BME280;59323;50.874;7.028;2023-05-10T03:47:48;100526.75;;;13.21;100.00
71504;BME280;59323;50.874;7.028;2023-05-10T03:50:13;100524.78;;;13.18;100.00
71504;BME280;59323;50.874;7.028;2023-05-10T03:52:39;100529.88;;;13.19;100.00
71504;BME280;59323;50.874;7.028;2023-05-10T03:55:05;100532.97;;;13.18;100.00
71504;BME280;59323;50.874;7.028;2023-05-10T03:57:31;100521.28;;;13.17;100.00
71504;BME280;59323;50.874;7.028;2023-05-10T03:59:57;100532.22;;;13.24;100.00
71504;BME280;59323;50.874;7.028;2023-05-10T04:02:22;100530.59;;;13.16;100.00
71504;BME280;59323;50.874;7.028;2023-05-10T04:04:47;100530.59;;;13.16;100.00
71504;BME280;59323;50.874;7.028;2023-05-10T04:07:13;100522.81;;;13.11;100.00
71504;BME280;59323;50.874;7.028;2023-05-10T04:09:39;100525.53;;;13.15;100.00
71504;BME280;59323;50.874;7.028;2023-05-10T04:12:04;100536.09;;;13.20;100.00
71504;BME280;59323;50.874;7.028;2023-05-10T04:14:30;100529.88;;;13.19;100.00
71504;BME280;59323;50.874;7.028;2023-05-10T04:16:55;100515.81;;;13.17;100.00
71504;BME280;59323;50.874;7.028;2023-05-10T04:19:21;100532.22;;;13.24;100.00
71504;BME280;59323;50.874;7.028;2023-05-10T04:21:46;100532.97;;;13.21;100.00
71504;BME280;59323;50.874;7.028;2023-05-10T04:24:11;100536.88;;;13.24;100.00
71504;BME280;59323;50.874;7.028;2023-05-10T04:26:37;100531.03;;;13.22;100.00
71504;BME280;59323;50.874;7.028;2023-05-10T04:29:02;100537.28;;;13.26;100.00
71504;BME280;59323;50.874;7.028;2023-05-10T04:31:27;100534.53;;;13.22;100.00
71504;BME280;59323;50.874;7.028;2023-05-10T04:33:53;100528.69;;;13.20;100.00
71504;BME280;59323;50.874;7.028;2023-05-10T04:36:18;100529.09;;;13.22;100.00
71504;BME280;59323;50.874;7.028;2023-05-10T04:38:43;100529.47;;;13.17;100.00
71504;BME280;59323;50.874;7.028;2023-05-10T04:41:10;100539.22;;;13.22;100.00
71504;BME280;59323;50.874;7.028;2023-05-10T04:43:36;100539.22;;;13.22;100.00
71504;BME280;59323;50.874;7.028;2023-05-10T04:46:02;100533.75;;;13.18;100.00
71504;BME280;59323;50.874;7.028;2023-05-10T04:48:28;100535.72;;;13.18;100.00
71504;BME280;59323;50.874;7.028;2023-05-10T04:50:54;100547.03;;;13.23;100.00
71504;BME280;59323;50.874;7.028;2023-05-10T04:53:19;100544.69;;;13.22;100.00
71504;BME280;59323;50.874;7.028;2023-05-10T04:55:44;100552.50;;;13.27;100.00
71504;BME280;59323;50.874;7.028;2023-05-10T04:58:11;100557.19;;;13.33;100.00
71504;BME280;59323;50.874;7.028;2023-05-10T05:00:36;100550.53;;;13.24;100.00
71504;BME280;59323;50.874;7.028;2023-05-10T05:03:01;100550.94;;;13.29;100.00
71504;BME280;59323;50.874;7.028;2023-05-10T05:05:27;100557.16;;;13.30;100.00
71504;BME280;59323;50.874;7.028;2023-05-10T05:07:52;100572.00;;;13.32;100.00
71504;BME280;59323;50.874;7.028;2023-05-10T05:10:18;100567.69;;;13.28;100.00
71504;BME280;59323;50.874;7.028;2023-05-10T05:12:43;100575.13;;;13.35;100.00
71504;BME280;59323;50.874;7.028;2023-05-10T05:15:08;100569.66;;;13.38;100.00
71504;BME280;59323;50.874;7.028;2023-05-10T05:17:35;100589.16;;;13.40;100.00
71504;BME280;59323;50.874;7.028;2023-05-10T05:20:04;100581.34;;;13.31;100.00
71504;BME280;59323;50.874;7.028;2023-05-10T05:22:35;100581.72;;;13.30;100.00
71504;BME280;59323;50.874;7.028;2023-05-10T05:25:04;100572.38;;;13.24;100.00
71504;BME280;59323;50.874;7.028;2023-05-10T05:27:32;100578.22;;;13.29;100.00
71504;BME280;59323;50.874;7.028;2023-05-10T05:29:58;100593.81;;;13.29;100.00
71504;BME280;59323;50.874;7.028;2023-05-10T05:32:29;100583.69;;;13.29;100.00
71504;BME280;59323;50.874;7.028;2023-05-10T05:34:54;100597.72;;;13.28;100.00
71504;BME280;59323;50.874;7.028;2023-05-10T05:37:20;100596.16;;;13.27;100.00
71504;BME280;59323;50.874;7.028;2023-05-10T05:39:50;100594.59;;;13.26;100.00
71504;BME280;59323;50.874;7.028;2023-05-10T05:42:15;100593.44;;;13.30;100.00
71504;BME280;59323;50.874;7.028;2023-05-10T05:44:48;100590.69;;;13.27;100.00
71504;BME280;59323;50.874;7.028;2023-05-10T05:47:13;100586.41;;;13.29;100.00
71504;BME280;59323;50.874;7.028;2023-05-10T05:49:39;100599.66;;;13.27;100.00
71504;BME280;59323;50.874;7.028;2023-05-10T05:52:04;100600.03;;;13.26;100.00
71504;BME280;59323;50.874;7.028;2023-05-10T05:54:31;100601.59;;;13.27;100.00
71504;BME280;59323;50.874;7.028;2023-05-10T05:56:58;100610.59;;;13.35;100.00
71504;BME280;59323;50.874;7.028;2023-05-10T05:59:24;100609.81;;;13.34;100.00
71504;BME280;59323;50.874;7.028;2023-05-10T06:01:49;100604.34;;;13.34;100.00
71504;BME280;59323;50.874;7.028;2023-05-10T06:04:20;100610.22;;;13.36;100.00
71504;BME280;59323;50.874;7.028;2023-05-10T06:06:46;100619.56;;;13.39;100.00
71504;BME280;59323;50.874;7.028;2023-05-10T06:09:14;100615.69;;;13.47;100.00
71504;BME280;59323;50.874;7.028;2023-05-10T06:11:40;100616.47;;;13.47;100.00
71504;BME280;59323;50.874;7.028;2023-05-10T06:14:08;100621.16;;;13.47;100.00
71504;BME280;59323;50.874;7.028;2023-05-10T06:16:40;100643.00;;;13.54;100.00
71504;BME280;59323;50.874;7.028;2023-05-10T06:19:06;100635.19;;;13.49;100.00
71504;BME280;59323;50.874;7.028;2023-05-10T06:21:31;100632.09;;;13.54;100.00
71504;BME280;59323;50.874;7.028;2023-05-10T06:23:57;100632.88;;;13.51;100.00
71504;BME280;59323;50.874;7.028;2023-05-10T06:26:22;100632.09;;;13.54;100.00
71504;BME280;59323;50.874;7.028;2023-05-10T06:28:48;100646.91;;;13.60;100.00
71504;BME280;59323;50.874;7.028;2023-05-10T06:31:13;100632.88;;;13.54;100.00
71504;BME280;59323;50.874;7.028;2023-05-10T06:33:39;100637.94;;;13.56;100.00
71504;BME280;59323;50.874;7.028;2023-05-10T06:36:05;100654.31;;;13.56;100.00
71504;BME280;59323;50.874;7.028;2023-05-10T06:38:30;100651.59;;;13.56;100.00
71504;BME280;59323;50.874;7.028;2023-05-10T06:40:56;100654.72;;;13.58;100.00
71504;BME280;59323;50.874;7.028;2023-05-10T06:43:22;100639.13;;;13.55;100.00
71504;BME280;59323;50.874;7.028;2023-05-10T06:45:48;100669.94;;;13.59;100.00
71504;BME280;59323;50.874;7.028;2023-05-10T06:48:13;100668.38;;;13.65;100.00
71504;BME280;59323;50.874;7.028;2023-05-10T06:50:38;100664.09;;;13.60;100.00
71504;BME280;59323;50.874;7.028;2023-05-10T06:53:04;100662.13;;;13.57;100.00
71504;BME280;59323;50.874;7.028;2023-05-10T06:55:29;100662.13;;;13.54;100.00
71504;BME280;59323;50.874;7.028;2023-05-10T06:57:54;100667.19;;;13.55;100.00
71504;BME280;59323;50.874;7.028;2023-05-10T07:00:20;100666.78;;;13.50;100.00
71504;BME280;59323;50.874;7.028;2023-05-10T07:02:46;100670.69;;;13.52;100.00
71504;BME280;59323;50.874;7.028;2023-05-10T07:05:12;100667.19;;;13.52;100.00
71504;BME280;59323;50.874;7.028;2023-05-10T07:07:38;100670.69;;;13.52;100.00
71504;BME280;59323;50.874;7.028;2023-05-10T07:10:03;100669.94;;;13.55;100.00
71504;BME280;59323;50.874;7.028;2023-05-10T07:12:38;100666.81;;;13.53;100.00
71504;BME280;59323;50.874;7.028;2023-05-10T07:15:10;100675.00;;;13.57;100.00
71504;BME280;59323;50.874;7.028;2023-05-10T07:17:38;100668.75;;;13.53;100.00
71504;BME280;59323;50.874;7.028;2023-05-10T07:20:06;100673.03;;;13.50;100.00
71504;BME280;59323;50.874;7.028;2023-05-10T07:22:32;100675.75;;;13.50;100.00
71504;BME280;59323;50.874;7.028;2023-05-10T07:24:57;100666.38;;;13.41;100.00
71504;BME280;59323;50.874;7.028;2023-05-10T07:27:23;100687.84;;;13.49;100.00
71504;BME280;59323;50.874;7.028;2023-05-10T07:29:48;100692.91;;;13.51;100.00
71504;BME280;59323;50.874;7.028;2023-05-10T07:32:22;100674.94;;;13.39;100.00
71504;BME280;59323;50.874;7.028;2023-05-10T07:34:48;100682.75;;;13.37;100.00
71504;BME280;59323;50.874;7.028;2023-05-10T07:37:13;100689.38;;;13.43;100.00
71504;BME280;59323;50.874;7.028;2023-05-10T07:39:38;100694.47;;;13.45;100.00
71504;BME280;59323;50.874;7.028;2023-05-10T07:42:04;100684.72;;;13.44;100.00
71504;BME280;59323;50.874;7.028;2023-05-10T07:44:29;100689.41;;;13.47;100.00
71504;BME280;59323;50.874;7.028;2023-05-10T07:46:54;100688.22;;;13.48;100.00
71504;BME280;59323;50.874;7.028;2023-05-10T07:49:20;100688.22;;;13.48;100.00
71504;BME280;59323;50.874;7.028;2023-05-10T07:51:46;100687.44;;;13.44;100.00
71504;BME280;59323;50.874;7.028;2023-05-10T07:54:11;100688.63;;;13.50;100.00
71504;BME280;59323;50.874;7.028;2023-05-10T07:56:37;100689.00;;;13.48;100.00
71504;BME280;59323;50.874;7.028;2023-05-10T07:59:03;100682.00;;;13.47;100.00
71504;BME280;59323;50.874;7.028;2023-05-10T08:01:31;100701.13;;;13.58;100.00
71504;BME280;59323;50.874;7.028;2023-05-10T08:04:00;100701.94;;;13.62;100.00
71504;BME280;59323;50.874;7.028;2023-05-10T08:06:26;100700.03;;;13.66;100.00
71504;BME280;59323;50.874;7.028;2023-05-10T08:08:53;100694.56;;;13.66;100.00
71504;BME280;59323;50.874;7.028;2023-05-10T08:11:22;100695.34;;;13.67;100.00
71504;BME280;59323;50.874;7.028;2023-05-10T08:13:49;100707.84;;;13.78;100.00
71504;BME280;59323;50.874;7.028;2023-05-10T08:16:15;100710.19;;;13.83;100.00
71504;BME280;59323;50.874;7.028;2023-05-10T08:18:40;100705.16;;;13.92;100.00
71504;BME280;59323;50.874;7.028;2023-05-10T08:21:06;100694.25;;;14.07;100.00
71504;BME280;59323;50.874;7.028;2023-05-10T08:23:32;100695.03;;;14.14;100.00
71504;BME280;59323;50.874;7.028;2023-05-10T08:25:57;100702.06;;;14.26;100.00
71504;BME280;59323;50.874;7.028;2023-05-10T08:28:22;100700.53;;;14.32;100.00
71504;BME280;59323;50.874;7.028;2023-05-10T08:30:49;100700.91;;;14.34;100.00
71504;BME280;59323;50.874;7.028;2023-05-10T08:33:15;100703.28;;;14.43;100.00
71504;BME280;59323;50.874;7.028;2023-05-10T08:35:41;100703.28;;;14.46;100.00
71504;BME280;59323;50.874;7.028;2023-05-10T08:38:06;100704.84;;;14.51;100.00
71504;BME280;59323;50.874;7.028;2023-05-10T08:40:32;100703.28;;;14.46;100.00
71504;BME280;59323;50.874;7.028;2023-05-10T08:43:08;100707.97;;;14.49;100.00
71504;BME280;59323;50.874;7.028;2023-05-10T08:45:41;100715.41;;;14.49;100.00
71504;BME280;59323;50.874;7.028;2023-05-10T08:48:08;100712.66;;;14.45;100.00
71504;BME280;59323;50.874;7.028;2023-05-10T08:50:39;100722.44;;;14.43;100.00
71504;BME280;59323;50.874;7.028;2023-05-10T08:53:14;100723.56;;;14.35;100.00
71504;BME280;59323;50.874;7.028;2023-05-10T08:55:41;100727.88;;;14.36;100.00
71504;BME280;59323;50.874;7.028;2023-05-10T08:58:08;100720.81;;;14.24;100.00
71504;BME280;59323;50.874;7.028;2023-05-10T09:00:35;100738.75;;;14.25;100.00
71504;BME280;59323;50.874;7.028;2023-05-10T09:03:28;100737.19;;;14.17;100.00
71504;BME280;59323;50.874;7.028;2023-05-10T09:06:07;100736.41;;;14.13;100.00
71504;BME280;59323;50.874;7.028;2023-05-10T09:08:34;100745.38;;;14.17;100.00
71504;BME280;59323;50.874;7.028;2023-05-10T09:11:04;100737.59;;;14.19;100.00
71504;BME280;59323;50.874;7.028;2023-05-10T09:13:30;100742.66;;;14.24;100.00
71504;BME280;59323;50.874;7.028;2023-05-10T09:15:56;100731.34;;;14.25;100.00
71504;BME280;59323;50.874;7.028;2023-05-10T09:18:33;100734.09;;;14.29;100.00
71504;BME280;59323;50.874;7.028;2023-05-10T09:21:29;100728.63;;;14.29;100.00
71504;BME280;59323;50.874;7.028;2023-05-10T09:24:31;100748.22;;;14.45;100.00
71504;BME280;59323;50.874;7.028;2023-05-10T09:27:15;100755.25;;;14.57;100.00
71504;BME280;59323;50.874;7.028;2023-05-10T09:29:44;100751.34;;;14.62;100.00
71504;BME280;59323;50.874;7.028;2023-05-10T09:32:10;100759.16;;;14.67;100.00
71504;BME280;59323;50.874;7.028;2023-05-10T09:34:35;100752.13;;;14.69;100.00
71504;BME280;59323;50.874;7.028;2023-05-10T09:37:04;100759.53;;;14.76;100.00
71504;BME280;59323;50.874;7.028;2023-05-10T09:39:37;100766.56;;;14.73;100.00
71504;BME280;59323;50.874;7.028;2023-05-10T09:42:07;100765.41;;;14.71;100.00
71504;BME280;59323;50.874;7.028;2023-05-10T09:44:34;100772.03;;;14.70;100.00
71504;BME280;59323;50.874;7.028;2023-05-10T09:47:03;100768.13;;;14.67;100.00
71504;BME280;59323;50.874;7.028;2023-05-10T09:49:28;100769.31;;;14.70;100.00
71504;BME280;59323;50.874;7.028;2023-05-10T09:52:05;100768.53;;;14.69;100.00
71504;BME280;59323;50.874;7.028;2023-05-10T09:54:31;100761.09;;;14.63;100.00
71504;BME280;59323;50.874;7.028;2023-05-10T09:56:57;100765.41;;;14.60;100.00
71504;BME280;59323;50.874;7.028;2023-05-10T09:59:25;100761.09;;;14.63;100.00
71504;BME280;59323;50.874;7.028;2023-05-10T10:01:51;100758.38;;;14.63;100.00
71504;BME280;59323;50.874;7.028;2023-05-10T10:04:17;100776.72;;;14.73;100.00
71504;BME280;59323;50.874;7.028;2023-05-10T10:06:42;100774.75;;;14.84;100.00
71504;BME280;59323;50.874;7.028;2023-05-10T10:09:09;100776.72;;;14.83;100.00
71504;BME280;59323;50.874;7.028;2023-05-10T10:11:36;100775.94;;;14.86;96.73
71504;BME280;59323;50.874;7.028;2023-05-10T10:14:39;100777.88;;;14.89;97.27
71504;BME280;59323;50.874;7.028;2023-05-10T10:17:41;100768.50;;;14.80;98.78
71504;BME280;59323;50.874;7.028;2023-05-10T10:20:28;100768.91;;;14.85;100.00
71504;BME280;59323;50.874;7.028;2023-05-10T10:22:54;100773.59;;;14.96;98.59
71504;BME280;59323;50.874;7.028;2023-05-10T10:25:20;100774.78;;;14.98;99.32
71504;BME280;59323;50.874;7.028;2023-05-10T10:30:29;100785.72;;;15.05;93.92
71504;BME280;59323;50.874;7.028;2023-05-10T10:33:06;100790.41;;;15.08;92.07
71504;BME280;59323;50.874;7.028;2023-05-10T10:35:33;100784.53;;;15.10;91.72
71504;BME280;59323;50.874;7.028;2023-05-10T10:38:00;100770.47;;;15.08;90.10
71504;BME280;59323;50.874;7.028;2023-05-10T10:40:30;100776.31;;;15.17;92.96
71504;BME280;59323;50.874;7.028;2023-05-10T10:42:56;100777.84;;;15.29;94.53
71504;BME280;59323;50.874;7.028;2023-05-10T10:45:23;100780.53;;;15.43;91.09
71504;BME280;59323;50.874;7.028;2023-05-10T10:48:19;100781.28;;;15.54;94.05
71504;BME280;59323;50.874;7.028;2023-05-10T10:50:45;100781.28;;;15.68;93.90
71504;BME280;59323;50.874;7.028;2023-05-10T10:53:13;100778.94;;;15.70;88.50
71504;BME280;59323;50.874;7.028;2023-05-10T10:56:11;100786.75;;;15.72;87.59
71504;BME280;59323;50.874;7.028;2023-05-10T10:58:41;100788.31;;;15.69;91.26
71504;BME280;59323;50.874;7.028;2023-05-10T11:01:34;100795.38;;;15.70;88.79
71504;BME280;59323;50.874;7.028;2023-05-10T11:06:44;100789.06;;;15.77;90.26
71504;BME280;59323;50.874;7.028;2023-05-10T11:09:30;100785.16;;;15.78;85.63
71504;BME280;59323;50.874;7.028;2023-05-10T11:12:11;100801.19;;;15.83;84.18
71504;BME280;59323;50.874;7.028;2023-05-10T11:14:41;100781.25;;;15.75;82.80
71504;BME280;59323;50.874;7.028;2023-05-10T11:17:28;100805.09;;;15.82;82.52
71504;BME280;59323;50.874;7.028;2023-05-10T11:20:14;100799.25;;;15.76;83.33
71504;BME280;59323;50.874;7.028;2023-05-10T11:22:57;100804.69;;;15.83;86.33
71504;BME280;59323;50.874;7.028;2023-05-10T11:25:26;100803.16;;;15.79;86.30
71504;BME280;59323;50.874;7.028;2023-05-10T11:27:52;100804.69;;;15.83;86.08
71504;BME280;59323;50.874;7.028;2023-05-10T11:30:17;100805.88;;;15.82;85.77
71504;BME280;59323;50.874;7.028;2023-05-10T11:32:46;100807.84;;;15.82;85.46
71504;BME280;59323;50.874;7.028;2023-05-10T11:35:12;100818.03;;;15.81;84.07
71504;BME280;59323;50.874;7.028;2023-05-10T11:37:39;100811.00;;;15.77;83.75
71504;BME280;59323;50.874;7.028;2023-05-10T11:40:08;100821.97;;;15.73;82.39
71504;BME280;59323;50.874;7.028;2023-05-10T11:42:38;100813.38;;;15.71;82.39
71504;BME280;59323;50.874;7.028;2023-05-10T11:45:05;100811.41;;;15.72;82.16
71504;BME280;59323;50.874;7.028;2023-05-10T11:47:31;100825.50;;;15.74;81.85
71504;BME280;59323;50.874;7.028;2023-05-10T11:49:56;100811.00;;;15.73;81.69
71504;BME280;59323;50.874;7.028;2023-05-10T11:52:23;100804.72;;;15.76;81.11
71504;BME280;59323;50.874;7.028;2023-05-10T11:54:53;100816.47;;;15.80;79.79
71504;BME280;59323;50.874;7.028;2023-05-10T11:57:19;100815.28;;;15.78;78.34
71504;BME280;59323;50.874;7.028;2023-05-10T11:59:46;100808.63;;;15.82;78.96
71504;BME280;59323;50.874;7.028;2023-05-10T12:02:13;100817.16;;;15.99;84.63
71504;BME280;59323;50.874;7.028;2023-05-10T12:04:39;100823.75;;;16.12;80.21
71504;BME280;59323;50.874;7.028;2023-05-10T12:07:05;100820.97;;;16.26;77.31
71504;BME280;59323;50.874;7.028;2023-05-10T12:09:30;100826.41;;;16.33;77.65
71504;BME280;59323;50.874;7.028;2023-05-10T12:11:56;100809.91;;;16.37;77.66
71504;BME280;59323;50.874;7.028;2023-05-10T12:14:24;100815.31;;;16.51;76.41
71504;BME280;59323;50.874;7.028;2023-05-10T12:16:49;100814.09;;;16.56;78.50
71504;BME280;59323;50.874;7.028;2023-05-10T12:19:18;100817.91;;;16.76;81.76
71504;BME280;59323;50.874;7.028;2023-05-10T12:21:45;100818.97;;;16.93;76.76
71504;BME280;59323;50.874;7.028;2023-05-10T12:24:10;100821.97;;;17.05;76.20
71504;BME280;59323;50.874;7.028;2023-05-10T12:26:36;100824.00;;;16.98;74.22
71504;BME280;59323;50.874;7.028;2023-05-10T12:29:18;100820.53;;;16.87;73.45
71504;BME280;59323;50.874;7.028;2023-05-10T12:32:04;100825.31;;;16.79;73.03
71504;BME280;59323;50.874;7.028;2023-05-10T12:34:33;100821.84;;;16.71;71.91
71504;BME280;59323;50.874;7.028;2023-05-10T12:37:00;100825.41;;;16.68;75.92
71504;BME280;59323;50.874;7.028;2023-05-10T12:39:25;100832.44;;;16.69;73.08
71504;BME280;59323;50.874;7.028;2023-05-10T12:41:51;100830.44;;;16.77;75.13
71504;BME280;59323;50.874;7.028;2023-05-10T12:44:17;100830.03;;;16.78;73.27
71504;BME280;59323;50.874;7.028;2023-05-10T12:46:42;100824.44;;;16.89;77.71
71504;BME280;59323;50.874;7.028;2023-05-10T12:49:08;100833.78;;;17.02;75.15
71504;BME280;59323;50.874;7.028;2023-05-10T12:51:33;100828.16;;;17.17;74.80
71504;BME280;59323;50.874;7.028;2023-05-10T12:53:59;100824.97;;;17.22;71.54
71504;BME280;59323;50.874;7.028;2023-05-10T12:56:24;100827.41;;;17.13;69.09
71504;BME280;59323;50.874;7.028;2023-05-10T12:58:49;100830.94;;;17.13;70.72
71504;BME280;59323;50.874;7.028;2023-05-10T13:01:16;100831.63;;;17.21;70.38
71504;BME280;59323;50.874;7.028;2023-05-10T13:03:41;100819.66;;;17.41;73.51
71504;BME280;59323;50.874;7.028;2023-05-10T13:06:08;100817.47;;;17.63;69.52
71504;BME280;59323;50.874;7.028;2023-05-10T13:08:33;100829.03;;;17.85;70.38